createdAt,value
2018-07-11T00:00:17.236Z,19.57
2018-07-11T00:02:45.911Z,21.07
2018-07-11T00:05:14.520Z,20.67
2018-07-11T00:07:43.150Z,20.93
2018-07-11T00:10:11.743Z,21.80
2018-07-11T00:12:40.379Z,28.67
2018-07-11T00:15:09.030Z,28.00
2018-07-11T00:17:37.674Z,28.57
2018-07-11T00:20:06.285Z,22.90
2018-07-11T00:22:34.914Z,24.13
2018-07-11T00:25:03.579Z,18.83
2018-07-11T00:30:06.267Z,20.43
2018-07-11T00:32:34.928Z,20.73
2018-07-11T00:35:03.581Z,25.37
2018-07-11T00:37:32.267Z,22.40
2018-07-11T00:40:00.964Z,22.60
2018-07-11T00:42:29.625Z,30.67
2018-07-11T00:44:58.281Z,32.87
2018-07-11T00:47:26.948Z,34.37
2018-07-11T00:49:55.621Z,26.37
2018-07-11T00:52:24.339Z,27.70
2018-07-11T00:54:53.001Z,36.40
2018-07-11T00:57:21.667Z,28.00
2018-07-11T00:59:50.418Z,25.63
2018-07-11T01:02:19.071Z,37.37
2018-07-11T01:04:47.732Z,35.03
2018-07-11T01:07:16.392Z,36.50
2018-07-11T01:09:46.149Z,33.80
2018-07-11T01:12:14.930Z,40.97
2018-07-11T01:14:43.580Z,33.13
2018-07-11T01:17:17.522Z,35.03
2018-07-11T01:19:47.383Z,30.57
2018-07-11T01:22:16.134Z,29.67
2018-07-11T01:24:44.754Z,30.97
2018-07-11T01:27:14.030Z,29.37
2018-07-11T01:29:42.658Z,36.13
2018-07-11T01:32:11.271Z,31.20
2018-07-11T01:34:39.884Z,36.97
2018-07-11T01:37:08.514Z,29.63
2018-07-11T01:39:37.233Z,40.00
2018-07-11T01:42:05.843Z,33.87
2018-07-11T01:44:34.559Z,35.90
2018-07-11T01:47:03.216Z,30.40
2018-07-11T01:49:31.904Z,29.93
2018-07-11T01:52:05.816Z,24.67
2018-07-11T01:54:34.579Z,27.23
2018-07-11T01:57:03.278Z,34.27
2018-07-11T01:59:33.950Z,30.80
2018-07-11T02:02:03.161Z,37.00
2018-07-11T02:04:32.439Z,27.40
2018-07-11T02:07:01.193Z,31.17
2018-07-11T02:09:30.428Z,37.63
2018-07-11T02:11:59.102Z,28.97
2018-07-11T02:14:27.922Z,21.10
2018-07-11T02:16:56.637Z,31.23
2018-07-11T02:19:25.282Z,33.10
2018-07-11T02:21:53.961Z,26.67
2018-07-11T02:24:23.861Z,23.13
2018-07-11T02:26:52.704Z,32.00
2018-07-11T02:29:21.432Z,24.93
2018-07-11T02:31:50.244Z,26.87
2018-07-11T02:34:23.142Z,37.87
2018-07-11T02:36:51.815Z,37.77
2018-07-11T02:39:20.442Z,29.80
2018-07-11T02:41:49.129Z,38.67
2018-07-11T02:44:17.783Z,41.90
2018-07-11T02:46:51.738Z,39.67
2018-07-11T02:49:20.408Z,47.10
2018-07-11T02:51:49.086Z,47.53
2018-07-11T02:54:18.147Z,47.07
2018-07-11T02:56:46.871Z,38.27
2018-07-11T02:59:15.569Z,53.30
2018-07-11T03:01:44.289Z,42.80
2018-07-11T03:04:13.012Z,54.63
2018-07-11T03:06:41.706Z,47.77
2018-07-11T03:09:10.353Z,64.33
2018-07-11T03:11:39.075Z,59.00
2018-07-11T03:14:07.682Z,55.43
2018-07-11T03:16:36.326Z,53.53
2018-07-11T03:19:05.015Z,62.90
2018-07-11T03:21:33.792Z,55.93
2018-07-11T03:24:02.443Z,53.30
2018-07-11T03:26:31.083Z,62.13
2018-07-11T03:28:59.752Z,57.63
2018-07-11T03:31:28.400Z,63.87
2018-07-11T03:33:57.021Z,64.77
2018-07-11T03:36:25.718Z,61.23
2018-07-11T03:38:54.716Z,58.43
2018-07-11T03:41:23.414Z,56.87
2018-07-11T03:43:52.105Z,54.27
2018-07-11T03:46:33.136Z,62.17
2018-07-11T03:49:01.797Z,60.67
2018-07-11T03:51:30.686Z,54.93
2018-07-11T03:53:59.329Z,70.77
2018-07-11T03:56:27.986Z,56.63
2018-07-11T03:58:56.614Z,48.47
2018-07-11T04:01:25.260Z,55.37
2018-07-11T04:03:54.063Z,53.07
2018-07-11T04:06:22.709Z,42.43
2018-07-11T04:08:51.316Z,52.50
2018-07-11T04:11:19.987Z,45.13
2018-07-11T04:13:48.644Z,58.73
2018-07-11T04:16:17.291Z,47.90
2018-07-11T04:18:45.916Z,50.23
2018-07-11T04:21:36.697Z,65.50
2018-07-11T04:24:05.360Z,63.17
2018-07-11T04:26:34.024Z,63.47
2018-07-11T04:29:02.641Z,64.60
2018-07-11T04:31:31.308Z,72.20
2018-07-11T04:33:59.979Z,66.53
2018-07-11T04:36:28.636Z,87.67
2018-07-11T04:38:57.307Z,74.93
2018-07-11T04:41:25.961Z,81.67
2018-07-11T04:43:54.633Z,117.27
2018-07-11T04:46:23.331Z,84.53
2018-07-11T04:48:52.090Z,92.27
2018-07-11T04:51:20.780Z,91.77
2018-07-11T04:53:49.481Z,85.60
2018-07-11T04:56:18.186Z,67.10
2018-07-11T04:58:46.832Z,69.80
2018-07-11T05:01:15.471Z,64.47
2018-07-11T05:03:44.139Z,69.23
2018-07-11T05:06:12.820Z,65.80
2018-07-11T05:08:41.425Z,60.20
2018-07-11T05:11:10.124Z,55.47
2018-07-11T05:13:38.758Z,56.00
2018-07-11T05:16:07.405Z,53.20
2018-07-11T05:18:36.082Z,56.40
2018-07-11T05:21:04.718Z,51.07
2018-07-11T05:23:33.345Z,51.00
2018-07-11T05:26:01.957Z,44.73
2018-07-11T05:28:30.616Z,45.37
2018-07-11T05:30:59.247Z,41.87
2018-07-11T05:33:27.997Z,42.30
2018-07-11T05:35:56.646Z,41.07
2018-07-11T05:38:25.261Z,39.50
2018-07-11T05:40:53.884Z,38.70
2018-07-11T05:43:22.477Z,41.73
2018-07-11T05:45:51.113Z,37.87
2018-07-11T05:48:20.295Z,50.33
2018-07-11T05:50:48.937Z,39.27
2018-07-11T05:53:17.587Z,44.80
2018-07-11T05:55:46.248Z,39.00
2018-07-11T05:58:14.960Z,41.73
2018-07-11T06:00:43.592Z,48.87
2018-07-11T06:03:12.230Z,41.47
2018-07-11T06:05:40.903Z,38.57
2018-07-11T06:08:09.532Z,41.73
2018-07-11T06:10:38.188Z,40.27
2018-07-11T06:13:07.010Z,42.33
2018-07-11T06:15:35.689Z,45.23
2018-07-11T06:18:04.330Z,41.37
2018-07-11T06:20:32.950Z,53.13
2018-07-11T06:23:01.554Z,45.30
2018-07-11T06:25:30.132Z,48.43
2018-07-11T06:27:58.828Z,43.87
2018-07-11T06:30:27.440Z,49.83
2018-07-11T06:32:56.068Z,54.37
2018-07-11T06:35:24.698Z,44.23
2018-07-11T06:37:53.300Z,48.07
2018-07-11T06:40:22.027Z,40.00
2018-07-11T06:42:50.636Z,37.50
2018-07-11T06:45:19.252Z,40.10
2018-07-11T06:47:47.971Z,39.70
2018-07-11T06:50:16.600Z,37.87
2018-07-11T06:52:45.269Z,32.43
2018-07-11T06:55:13.873Z,30.90
2018-07-11T06:57:42.531Z,33.13
2018-07-11T07:00:11.168Z,29.07
2018-07-11T07:02:39.791Z,30.53
2018-07-11T07:05:08.435Z,31.90
2018-07-11T07:07:37.089Z,32.17
2018-07-11T07:10:05.752Z,25.23
2018-07-11T07:12:34.387Z,26.77
2018-07-11T07:15:03.000Z,25.83
2018-07-11T07:17:32.057Z,23.00
2018-07-11T07:20:01.114Z,25.23
2018-07-11T07:22:30.289Z,29.83
2018-07-11T07:24:59.245Z,25.30
2018-07-11T07:27:27.959Z,23.20
2018-07-11T07:29:56.852Z,23.53
2018-07-11T07:32:25.928Z,27.10
2018-07-11T07:34:54.746Z,21.10
2018-07-11T07:37:23.620Z,27.17
2018-07-11T07:39:52.460Z,25.33
2018-07-11T07:42:21.227Z,26.90
2018-07-11T07:44:50.202Z,23.07
2018-07-11T07:47:24.412Z,23.53
2018-07-11T07:49:53.131Z,27.10
2018-07-11T07:52:22.627Z,27.20
2018-07-11T07:54:51.716Z,29.63
2018-07-11T07:57:20.504Z,23.53
2018-07-11T07:59:49.707Z,21.67
2018-07-11T08:02:18.998Z,24.37
2018-07-11T08:04:48.312Z,24.73
2018-07-11T08:07:17.016Z,23.50
2018-07-11T08:09:45.695Z,22.37
2018-07-11T08:12:14.499Z,22.77
2018-07-11T08:14:43.236Z,22.27
2018-07-11T08:17:11.935Z,22.23
2018-07-11T08:19:40.591Z,22.63
2018-07-11T08:22:14.613Z,19.63
2018-07-11T08:24:48.720Z,20.93
2018-07-11T08:29:31.141Z,21.13
2018-07-11T08:32:05.131Z,20.73
2018-07-11T08:36:42.644Z,20.20
2018-07-11T08:39:30.549Z,19.00
2018-07-11T08:42:04.701Z,19.23
2018-07-11T08:46:46.029Z,18.97
2018-07-11T08:49:20.031Z,17.87
2018-07-11T08:51:54.234Z,17.20
2018-07-11T08:54:30.090Z,17.23
2018-07-11T08:57:03.017Z,17.23
2018-07-11T08:59:37.184Z,17.63
2018-07-11T09:04:14.370Z,19.10
2018-07-11T09:08:52.291Z,17.53
2018-07-11T09:11:34.284Z,17.90
2018-07-11T09:14:06.224Z,19.60
2018-07-11T09:16:42.392Z,17.63
2018-07-11T09:19:16.762Z,19.00
2018-07-11T09:21:56.344Z,22.90
2018-07-11T09:24:30.585Z,23.93
2018-07-11T09:26:59.276Z,24.57
2018-07-11T09:29:28.049Z,27.20
2018-07-11T09:31:56.736Z,26.80
2018-07-11T09:34:25.347Z,26.20
2018-07-11T09:36:54.343Z,25.23
2018-07-11T09:39:23.215Z,25.97
2018-07-11T09:41:51.876Z,25.07
2018-07-11T09:44:20.599Z,26.23
2018-07-11T09:46:49.517Z,24.37
2018-07-11T09:49:18.206Z,26.30
2018-07-11T09:51:47.060Z,27.73
2018-07-11T09:54:16.075Z,27.17
2018-07-11T09:56:44.769Z,27.30
2018-07-11T09:59:14.275Z,27.00
2018-07-11T10:01:42.960Z,27.73
2018-07-11T10:04:12.672Z,25.13
2018-07-11T10:06:41.496Z,25.60
2018-07-11T10:09:10.364Z,26.03
2018-07-11T10:11:39.156Z,27.40
2018-07-11T10:14:07.976Z,25.17
2018-07-11T10:16:36.642Z,26.13
2018-07-11T10:19:05.939Z,25.43
2018-07-11T10:21:35.352Z,25.50
2018-07-11T10:24:04.149Z,24.80
2018-07-11T10:26:32.936Z,26.60
2018-07-11T10:29:01.654Z,26.03
2018-07-11T10:31:30.520Z,24.63
2018-07-11T10:33:59.444Z,25.80
2018-07-11T10:36:28.048Z,25.43
2018-07-11T10:38:56.805Z,25.80
2018-07-11T10:41:25.516Z,25.63
2018-07-11T10:43:54.415Z,23.57
2018-07-11T10:46:23.184Z,23.27
2018-07-11T10:48:51.968Z,23.70
2018-07-11T10:51:20.760Z,22.23
2018-07-11T10:53:49.552Z,22.97
2018-07-11T10:56:18.348Z,20.90
2018-07-11T10:58:47.167Z,19.13
2018-07-11T11:01:15.969Z,20.07
2018-07-11T11:03:44.548Z,20.47
2018-07-11T11:06:13.341Z,22.07
2018-07-11T11:08:41.995Z,20.67
2018-07-11T11:11:10.700Z,20.60
2018-07-11T11:13:39.588Z,20.43
2018-07-11T11:16:08.484Z,20.87
2018-07-11T11:18:37.276Z,21.10
2018-07-11T11:21:06.067Z,20.73
2018-07-11T11:23:34.879Z,19.97
2018-07-11T11:26:03.582Z,21.97
2018-07-11T11:28:32.373Z,21.10
2018-07-11T11:31:01.040Z,21.73
2018-07-11T11:33:29.736Z,22.20
2018-07-11T11:35:58.620Z,22.33
2018-07-11T11:38:27.516Z,20.83
2018-07-11T11:40:56.209Z,20.17
2018-07-11T11:43:25.005Z,21.33
2018-07-11T11:45:53.631Z,21.33
2018-07-11T11:48:22.514Z,20.70
2018-07-11T11:50:51.405Z,21.40
2018-07-11T11:53:20.076Z,22.00
2018-07-11T11:55:48.788Z,20.13
2018-07-11T11:58:17.580Z,20.63
2018-07-11T12:00:46.449Z,19.00
2018-07-11T12:03:15.268Z,18.80
2018-07-11T12:05:43.958Z,18.30
2018-07-11T12:08:12.718Z,19.87
2018-07-11T12:10:41.337Z,19.97
2018-07-11T12:13:10.131Z,21.20
2018-07-11T12:15:39.000Z,21.03
2018-07-11T12:18:07.716Z,19.63
2018-07-11T12:20:36.405Z,19.20
2018-07-11T12:23:05.172Z,17.63
2018-07-11T12:25:33.964Z,17.67
2018-07-11T12:28:02.655Z,17.90
2018-07-11T12:30:31.275Z,16.60
2018-07-11T12:33:00.037Z,15.53
2018-07-11T12:35:28.731Z,15.63
2018-07-11T12:37:57.549Z,17.85
2018-07-11T12:40:26.413Z,16.65
2018-07-11T12:42:55.157Z,15.60
2018-07-11T12:45:23.791Z,15.85
2018-07-11T12:47:57.732Z,15.72
2018-07-11T12:50:26.405Z,15.75
2018-07-11T12:52:55.062Z,16.87
2018-07-11T12:55:23.704Z,16.97
2018-07-11T12:57:52.339Z,19.17
2018-07-11T13:00:21.000Z,17.23
2018-07-11T13:02:49.635Z,16.47
2018-07-11T13:05:18.275Z,16.70
2018-07-11T13:07:46.905Z,17.00
2018-07-11T13:10:15.504Z,16.77
2018-07-11T13:12:44.149Z,16.60
2018-07-11T13:15:12.775Z,17.87
2018-07-11T13:17:41.386Z,16.70
2018-07-11T13:20:10.004Z,16.97
2018-07-11T13:22:38.606Z,16.27
2018-07-11T13:25:07.222Z,17.10
2018-07-11T13:27:35.865Z,17.23
2018-07-11T13:30:04.891Z,17.83
2018-07-11T13:32:33.512Z,17.93
2018-07-11T13:35:02.148Z,15.33
2018-07-11T13:37:30.773Z,16.50
2018-07-11T13:39:59.376Z,17.93
2018-07-11T13:42:28.010Z,16.97
2018-07-11T13:44:56.643Z,16.23
2018-07-11T13:47:27.492Z,16.03
2018-07-11T13:49:56.634Z,17.00
2018-07-11T13:52:25.260Z,15.87
2018-07-11T13:54:53.908Z,15.27
2018-07-11T13:57:22.856Z,16.60
2018-07-11T13:59:51.693Z,16.00
2018-07-11T14:02:20.539Z,15.93
2018-07-11T14:04:49.310Z,17.20
2018-07-11T14:07:17.983Z,16.77
2018-07-11T14:09:46.663Z,15.83
2018-07-11T14:12:15.348Z,15.20
2018-07-11T14:14:44.000Z,17.40
2018-07-11T14:17:12.651Z,17.80
2018-07-11T14:19:41.237Z,16.47
2018-07-11T14:22:10.117Z,18.50
2018-07-11T14:24:38.911Z,17.93
2018-07-11T14:27:07.600Z,17.23
2018-07-11T14:29:36.411Z,18.93
2018-07-11T14:32:05.491Z,18.13
2018-07-11T14:34:34.268Z,17.53
2018-07-11T14:37:03.158Z,16.43
2018-07-11T14:39:31.870Z,16.63
2018-07-11T14:42:00.739Z,15.97
2018-07-11T14:44:29.943Z,16.83
2018-07-11T14:46:59.320Z,17.23
2018-07-11T14:49:28.044Z,16.73
2018-07-11T14:51:56.856Z,17.70
2018-07-11T14:54:25.624Z,16.73
2018-07-11T14:56:54.286Z,16.30
2018-07-11T14:59:23.234Z,16.17
2018-07-11T15:01:51.896Z,12.33
2018-07-11T15:04:20.688Z,11.83
2018-07-11T15:06:49.408Z,16.97
2018-07-11T15:09:18.574Z,13.93
2018-07-11T15:11:47.095Z,18.03
2018-07-11T15:14:16.023Z,14.50
2018-07-11T15:16:44.860Z,14.77
2018-07-11T15:19:13.651Z,14.63
2018-07-11T15:21:42.473Z,13.80
2018-07-11T15:24:11.265Z,13.43
2018-07-11T15:26:39.874Z,15.20
2018-07-11T15:29:08.421Z,17.50
2018-07-11T15:31:37.540Z,15.70
2018-07-11T15:34:06.520Z,15.60
2018-07-11T15:36:35.330Z,15.67
2018-07-11T15:39:05.044Z,15.10
2018-07-11T15:41:33.595Z,14.97
2018-07-11T15:44:02.172Z,18.00
2018-07-11T15:46:30.755Z,16.00
2018-07-11T15:48:59.984Z,18.43
2018-07-11T15:51:28.805Z,15.13
2018-07-11T15:53:57.698Z,14.93
2018-07-11T15:56:26.593Z,14.80
2018-07-11T15:58:59.583Z,15.73
2018-07-11T16:01:28.348Z,15.90
2018-07-11T16:03:57.056Z,15.07
2018-07-11T16:06:25.729Z,16.23
2018-07-11T16:08:54.524Z,17.63
2018-07-11T16:11:23.239Z,15.87
2018-07-11T16:13:51.930Z,11.30
2018-07-11T16:16:20.729Z,8.83
2018-07-11T16:18:49.484Z,7.07
2018-07-11T16:21:18.276Z,7.80
2018-07-11T16:23:47.172Z,8.37
2018-07-11T16:26:15.864Z,6.60
2018-07-11T16:28:44.583Z,7.27
2018-07-11T16:31:13.377Z,8.43
2018-07-11T16:33:42.169Z,9.93
2018-07-11T16:36:10.961Z,10.27
2018-07-11T16:38:39.754Z,14.93
2018-07-11T16:41:08.467Z,14.17
2018-07-11T16:43:37.216Z,13.47
2018-07-11T16:46:05.929Z,12.93
2018-07-11T16:48:34.822Z,14.47
2018-07-11T16:51:03.514Z,19.60
2018-07-11T16:53:32.307Z,16.50
2018-07-11T16:56:01.076Z,19.60
2018-07-11T16:58:30.711Z,19.87
2018-07-11T17:01:00.187Z,17.77
2018-07-11T17:03:30.620Z,24.07
2018-07-11T17:06:01.160Z,21.00
2018-07-11T17:08:31.539Z,22.50
2018-07-11T17:11:08.495Z,22.10
2018-07-11T17:13:37.251Z,16.27
2018-07-11T17:16:06.485Z,16.40
2018-07-11T17:18:40.228Z,20.37
2018-07-11T17:21:10.248Z,19.50
2018-07-11T17:23:43.095Z,18.23
2018-07-11T17:26:11.872Z,19.80
2018-07-11T17:28:41.372Z,20.83
2018-07-11T17:31:10.292Z,19.73
2018-07-11T17:33:39.210Z,16.27
2018-07-11T17:36:08.013Z,15.13
2018-07-11T17:38:36.792Z,13.97
2018-07-11T17:41:05.669Z,16.53
2018-07-11T17:43:38.355Z,19.20
2018-07-11T17:46:07.934Z,19.17
2018-07-11T17:48:44.943Z,18.87
2018-07-11T17:51:22.146Z,20.80
2018-07-11T17:53:54.263Z,19.33
2018-07-11T17:56:23.474Z,17.07
2018-07-11T17:58:54.277Z,16.70
2018-07-11T18:01:43.945Z,18.83
2018-07-11T18:04:14.851Z,22.73
2018-07-11T18:06:49.060Z,23.00
2018-07-11T18:09:18.266Z,20.13
2018-07-11T18:11:53.299Z,19.37
2018-07-11T18:14:27.618Z,21.10
2018-07-11T18:16:59.655Z,19.77
2018-07-11T18:19:37.249Z,21.37
2018-07-11T18:22:11.895Z,22.27
2018-07-11T18:25:13.232Z,19.23
2018-07-11T18:27:46.842Z,20.77
2018-07-11T18:30:22.256Z,22.43
2018-07-11T18:32:56.556Z,26.93
2018-07-11T18:35:30.665Z,23.33
2018-07-11T18:38:35.942Z,27.50
2018-07-11T18:41:05.020Z,31.10
2018-07-11T18:43:39.155Z,38.93
2018-07-11T18:46:11.837Z,47.67
2018-07-11T18:48:45.108Z,48.40
2018-07-11T18:53:24.093Z,42.97
2018-07-11T18:55:55.648Z,36.03
2018-07-11T18:58:27.179Z,31.17
2018-07-11T19:01:00.401Z,32.40
2018-07-11T19:03:30.861Z,35.33
2018-07-11T19:08:08.151Z,35.87
2018-07-11T19:10:42.164Z,33.93
2018-07-11T19:13:17.069Z,37.37
2018-07-11T19:15:46.639Z,39.90
2018-07-11T19:18:17.119Z,32.87
2018-07-11T19:20:56.240Z,27.23
2018-07-11T19:23:29.219Z,31.73
2018-07-11T19:26:07.548Z,30.33
2018-07-11T19:28:41.856Z,31.10
2018-07-11T19:31:15.895Z,33.63
2018-07-11T19:33:46.608Z,30.03
2018-07-11T19:37:20.073Z,29.27
2018-07-11T19:39:58.080Z,33.50
2018-07-11T19:42:34.880Z,32.10
2018-07-11T19:45:09.573Z,28.97
2018-07-11T19:48:41.572Z,31.27
2018-07-11T19:51:14.707Z,34.60
2018-07-11T19:53:53.951Z,37.70
2018-07-11T19:56:54.688Z,40.27
2018-07-11T19:59:23.304Z,50.40
2018-07-11T20:01:51.856Z,42.40
2018-07-11T20:04:20.451Z,41.93
2018-07-11T20:06:49.068Z,43.83
2018-07-11T20:09:17.929Z,45.90
2018-07-11T20:11:46.708Z,34.93
2018-07-11T20:14:15.384Z,45.73
2018-07-11T20:16:44.259Z,41.67
2018-07-11T20:19:13.079Z,51.13
2018-07-11T20:21:41.864Z,48.63
2018-07-11T20:24:11.095Z,43.97
2018-07-11T20:26:39.963Z,37.17
2018-07-11T20:29:08.756Z,51.10
2018-07-11T20:31:37.556Z,48.17
2018-07-11T20:34:06.444Z,46.40
2018-07-11T20:36:35.241Z,48.17
2018-07-11T20:39:04.436Z,44.23
2018-07-11T20:41:33.227Z,44.23
2018-07-11T20:44:02.024Z,52.60
2018-07-11T20:46:31.012Z,51.80
2018-07-11T20:48:59.738Z,47.07
2018-07-11T20:51:28.839Z,68.60
2018-07-11T20:53:57.733Z,78.77
2018-07-11T20:56:26.631Z,57.80
2018-07-11T20:59:00.949Z,55.93
2018-07-11T21:01:35.181Z,54.87
2018-07-11T21:04:09.764Z,56.07
2018-07-11T21:07:03.111Z,55.83
2018-07-11T21:09:37.328Z,43.67
2018-07-11T21:12:11.370Z,42.33
2018-07-11T21:14:50.498Z,44.67
2018-07-11T21:17:24.687Z,42.90
2018-07-11T21:19:53.375Z,47.17
2018-07-11T21:22:22.172Z,40.73
2018-07-11T21:24:50.868Z,43.00
2018-07-11T21:27:19.657Z,41.60
2018-07-11T21:29:48.350Z,39.17
2018-07-11T21:32:17.166Z,42.30
2018-07-11T21:34:46.059Z,39.60
2018-07-11T21:37:14.759Z,45.70
2018-07-11T21:39:43.434Z,49.97
2018-07-11T21:42:12.308Z,48.50
2018-07-11T21:44:41.100Z,43.83
2018-07-11T21:47:10.010Z,47.77
2018-07-11T21:49:38.797Z,50.93
2018-07-11T21:52:07.580Z,54.83
2018-07-11T21:54:36.277Z,52.60
2018-07-11T21:57:05.300Z,50.97
2018-07-11T21:59:34.190Z,53.93
2018-07-11T22:02:03.088Z,40.07
2018-07-11T22:04:31.775Z,49.60
2018-07-11T22:07:00.590Z,47.93
2018-07-11T22:09:29.344Z,45.50
2018-07-11T22:11:58.124Z,45.57
2018-07-11T22:14:26.928Z,43.00
2018-07-11T22:16:56.036Z,66.43
2018-07-11T22:19:29.137Z,60.13
2018-07-11T22:21:57.214Z,68.83
2018-07-11T22:24:28.569Z,69.53
2018-07-11T22:26:56.643Z,60.10
2018-07-11T22:29:24.652Z,62.03
2018-07-11T22:31:52.614Z,59.80
2018-07-11T22:34:20.568Z,73.20
2018-07-11T22:36:48.563Z,70.90
2018-07-11T22:39:16.501Z,80.00
2018-07-11T22:41:44.436Z,74.13
2018-07-11T22:44:12.377Z,54.97
2018-07-11T22:46:40.418Z,71.07
2018-07-11T22:49:08.381Z,73.17
2018-07-11T22:51:36.293Z,76.13
2018-07-11T22:54:04.211Z,83.53
2018-07-11T22:56:32.165Z,80.57
2018-07-11T22:59:00.090Z,97.77
2018-07-11T23:01:28.083Z,88.60
2018-07-11T23:03:55.995Z,78.07
2018-07-11T23:06:23.920Z,109.13
2018-07-11T23:08:51.913Z,89.60
2018-07-11T23:11:19.827Z,89.47
2018-07-11T23:13:47.801Z,92.00
2018-07-11T23:16:15.738Z,85.17
2018-07-11T23:18:43.689Z,104.17
2018-07-11T23:21:11.637Z,89.90
2018-07-11T23:23:39.573Z,103.10
2018-07-11T23:26:07.814Z,92.83
2018-07-11T23:28:35.729Z,118.37
2018-07-11T23:31:03.694Z,98.53
2018-07-11T23:33:31.649Z,85.67
2018-07-11T23:35:59.590Z,85.13
2018-07-11T23:38:27.564Z,90.00
2018-07-11T23:40:55.531Z,103.67
2018-07-11T23:43:23.548Z,105.33
2018-07-11T23:45:51.516Z,86.10
2018-07-11T23:48:19.469Z,132.83
2018-07-11T23:50:47.511Z,91.60
2018-07-11T23:53:15.433Z,101.97
2018-07-11T23:55:43.381Z,103.83
2018-07-11T23:58:11.317Z,82.63
